createdAt,value
2019-03-23T00:00:50.807Z,98.73
2019-03-23T00:01:50.784Z,98.64
2019-03-23T00:02:50.790Z,98.64
2019-03-23T00:03:50.774Z,98.92
2019-03-23T00:04:50.749Z,98.92
2019-03-23T00:05:50.732Z,98.92
2019-03-23T00:06:50.740Z,98.92
2019-03-23T00:07:50.727Z,98.73
2019-03-23T00:08:50.698Z,98.73
2019-03-23T00:09:50.680Z,98.73
2019-03-23T00:10:50.669Z,98.92
2019-03-23T00:11:50.673Z,98.73
2019-03-23T00:12:50.645Z,98.92
2019-03-23T00:13:50.646Z,98.92
2019-03-23T00:14:50.621Z,98.73
2019-03-23T00:15:50.621Z,98.92
2019-03-23T00:16:50.594Z,98.73
2019-03-23T00:17:50.596Z,98.73
2019-03-23T00:18:50.565Z,98.83
2019-03-23T00:19:50.569Z,98.73
2019-03-23T00:20:50.551Z,98.73
2019-03-23T00:21:50.545Z,98.73
2019-03-23T00:22:50.513Z,98.83
2019-03-23T00:23:50.286Z,98.73
2019-03-23T00:24:50.499Z,98.35
2019-03-23T00:25:50.498Z,99.21
2019-03-23T00:26:50.459Z,98.73
2019-03-23T00:27:50.488Z,98.83
2019-03-23T00:28:50.438Z,98.83
2019-03-23T00:29:50.443Z,99.11
2019-03-23T00:30:50.405Z,99.11
2019-03-23T00:31:50.411Z,97.97
2019-03-23T00:32:50.383Z,97.97
2019-03-23T00:33:50.402Z,98.35
2019-03-23T00:34:50.354Z,99.02
2019-03-23T00:35:50.361Z,97.88
2019-03-23T00:36:50.345Z,98.54
2019-03-23T00:37:50.342Z,97.88
2019-03-23T00:38:50.301Z,97.88
2019-03-23T00:39:50.290Z,98.35
2019-03-23T00:40:51.074Z,97.88
2019-03-23T00:41:50.289Z,98.35
2019-03-23T00:42:50.274Z,98.26
2019-03-23T00:43:50.266Z,97.97
2019-03-23T00:44:50.238Z,98.07
2019-03-23T00:45:50.226Z,97.97
2019-03-23T00:46:50.215Z,97.97
2019-03-23T00:47:50.189Z,97.78
2019-03-23T00:48:50.189Z,98.16
2019-03-23T00:49:50.160Z,97.78
2019-03-23T00:50:50.164Z,98.16
2019-03-23T00:51:50.136Z,98.92
2019-03-23T00:52:50.135Z,98.35
2019-03-23T00:53:50.123Z,98.54
2019-03-23T00:54:50.092Z,98.35
2019-03-23T00:55:50.078Z,98.54
2019-03-23T00:56:50.079Z,98.16
2019-03-23T00:57:50.070Z,98.16
2019-03-23T00:58:50.057Z,97.97
2019-03-23T00:59:50.027Z,98.16
2019-03-23T01:00:50.027Z,98.35
2019-03-23T01:01:50.008Z,98.26
2019-03-23T01:02:50.006Z,98.73
2019-03-23T01:03:49.972Z,98.83
2019-03-23T01:04:49.982Z,98.68
2019-03-23T01:05:49.947Z,98.26
2019-03-23T01:06:54.654Z,98.54
2019-03-23T01:07:49.921Z,98.26
2019-03-23T01:08:49.916Z,98.59
2019-03-23T01:09:49.898Z,99.06
2019-03-23T01:10:49.909Z,98.3
2019-03-23T01:11:49.885Z,98.68
2019-03-23T01:12:49.865Z,98.59
2019-03-23T01:13:49.841Z,98.59
2019-03-23T01:14:49.831Z,98.68
2019-03-23T01:15:50.624Z,98.59
2019-03-23T01:16:49.805Z,98.68
2019-03-23T01:17:49.790Z,98.68
2019-03-23T01:18:49.796Z,98.68
2019-03-23T01:19:49.760Z,98.68
2019-03-23T01:20:52.420Z,98.68
2019-03-23T01:21:49.738Z,98.68
2019-03-23T01:22:49.744Z,98.78
2019-03-23T01:23:49.714Z,98.87
2019-03-23T01:24:49.700Z,99.06
2019-03-23T01:25:49.688Z,98.59
2019-03-23T01:26:49.694Z,98.59
2019-03-23T01:27:49.677Z,98.59
2019-03-23T01:28:49.646Z,98.78
2019-03-23T01:29:49.628Z,98.68
2019-03-23T01:30:49.634Z,98.68
2019-03-23T01:31:49.603Z,98.68
2019-03-23T01:32:49.605Z,98.68
2019-03-23T01:33:49.576Z,98.59
2019-03-23T01:34:49.582Z,98.68
2019-03-23T01:35:49.549Z,98.78
2019-03-23T01:36:49.557Z,98.68
2019-03-23T01:37:49.524Z,98.68
2019-03-23T01:38:49.528Z,98.49
2019-03-23T01:39:49.497Z,98.97
2019-03-23T01:40:49.487Z,98.68
2019-03-23T01:41:49.469Z,98.59
2019-03-23T01:42:49.491Z,98.78
2019-03-23T01:43:49.442Z,98.49
2019-03-23T01:44:49.449Z,98.49
2019-03-23T01:45:49.433Z,98.87
2019-03-23T01:46:49.426Z,98.97
2019-03-23T01:47:49.405Z,98.59
2019-03-23T01:48:49.395Z,98.87
2019-03-23T01:49:49.363Z,98.49
2019-03-23T01:50:49.367Z,98.59
2019-03-23T01:51:49.335Z,98.68
2019-03-23T01:52:49.340Z,98.68
2019-03-23T01:53:49.314Z,98.68
2019-03-23T01:54:49.315Z,98.68
2019-03-23T01:55:49.281Z,98.78
2019-03-23T01:56:49.272Z,98.59
2019-03-23T01:57:49.255Z,98.59
2019-03-23T01:58:49.261Z,98.87
2019-03-23T01:59:49.246Z,98.35
2019-03-23T02:00:49.237Z,97.97
2019-03-23T02:01:49.207Z,97.78
2019-03-23T02:02:50.047Z,97.88
2019-03-23T02:03:49.193Z,97.69
2019-03-23T02:04:49.166Z,97.5
2019-03-23T02:05:49.169Z,97.22
2019-03-23T02:06:49.134Z,97.5
2019-03-23T02:07:49.141Z,97.41
2019-03-23T02:08:49.119Z,96.74
2019-03-23T02:09:49.095Z,96.83
2019-03-23T02:10:49.099Z,97.02
2019-03-23T02:11:49.069Z,97.02
2019-03-23T02:12:49.062Z,97.41
2019-03-23T02:13:49.044Z,96.64
2019-03-23T02:14:49.049Z,96.69
2019-03-23T02:15:49.038Z,96.31
2019-03-23T02:16:49.008Z,96.6
2019-03-23T02:17:48.990Z,96.5
2019-03-23T02:18:48.978Z,96.88
2019-03-23T02:19:48.986Z,96.69
2019-03-23T02:20:48.956Z,96.69
2019-03-23T02:21:48.959Z,96.6
2019-03-23T02:22:48.930Z,96.41
2019-03-23T02:23:48.936Z,96.6
2019-03-23T02:24:48.904Z,96.41
2019-03-23T02:25:48.950Z,96.12
2019-03-23T02:26:48.877Z,96.12
2019-03-23T02:27:48.887Z,96.79
2019-03-23T02:28:48.866Z,96.79
2019-03-23T02:29:48.856Z,96.69
2019-03-23T02:30:48.843Z,96.5
2019-03-23T02:31:48.817Z,96.69
2019-03-23T02:32:48.823Z,95.94
2019-03-23T02:33:48.809Z,96.03
2019-03-23T02:34:48.779Z,96.31
2019-03-23T02:35:48.784Z,96.03
2019-03-23T02:36:48.755Z,96.22
2019-03-23T02:37:48.765Z,96.22
2019-03-23T02:38:48.734Z,96.12
2019-03-23T02:39:48.732Z,96.31
2019-03-23T02:40:48.732Z,96.22
2019-03-23T02:41:48.707Z,96.22
2019-03-23T02:42:48.675Z,96.12
2019-03-23T02:43:48.680Z,96.22
2019-03-23T02:44:48.666Z,96.22
2019-03-23T02:45:48.655Z,96.12
2019-03-23T02:46:48.625Z,96.26
2019-03-23T02:47:48.617Z,96.03
2019-03-23T02:48:48.390Z,96.08
2019-03-23T02:49:48.623Z,96.03
2019-03-23T02:50:48.610Z,96.12
2019-03-23T02:51:48.568Z,96.03
2019-03-23T02:52:48.565Z,96.22
2019-03-23T02:53:48.542Z,96.31
2019-03-23T02:54:48.547Z,96.31
2019-03-23T02:55:48.514Z,96.12
2019-03-23T02:56:48.524Z,96.12
2019-03-23T02:57:48.488Z,96.41
2019-03-23T02:58:48.496Z,96.17
2019-03-23T02:59:48.464Z,95.94
2019-03-23T03:00:48.467Z,96.22
2019-03-23T03:01:48.464Z,96.12
2019-03-23T03:02:48.431Z,96.22
2019-03-23T03:03:48.428Z,96.26
2019-03-23T03:04:48.424Z,96.17
2019-03-23T03:05:48.414Z,96.26
2019-03-23T03:06:48.396Z,96.26
2019-03-23T03:07:48.367Z,96.26
2019-03-23T03:08:48.368Z,96.17
2019-03-23T03:09:48.347Z,95.98
2019-03-23T03:10:48.351Z,96.26
2019-03-23T03:11:48.318Z,96.26
2019-03-23T03:12:48.323Z,96.08
2019-03-23T03:13:48.316Z,96.17
2019-03-23T03:14:48.279Z,96.36
2019-03-23T03:15:48.290Z,96.36
2019-03-23T03:16:48.271Z,96.36
2019-03-23T03:17:48.260Z,95.98
2019-03-23T03:18:48.233Z,96.17
2019-03-23T03:19:48.221Z,96.08
2019-03-23T03:20:48.260Z,96.84
2019-03-23T03:21:48.214Z,96.26
2019-03-23T03:22:48.198Z,96.03
2019-03-23T03:23:48.175Z,96.08
2019-03-23T03:24:48.178Z,96.08
2019-03-23T03:25:48.183Z,96.08
2019-03-23T03:26:48.132Z,96.17
2019-03-23T03:27:48.145Z,96.26
2019-03-23T03:28:48.113Z,96.08
2019-03-23T03:29:48.116Z,96.08
2019-03-23T03:30:48.088Z,95.89
2019-03-23T03:31:48.157Z,96.08
2019-03-23T03:32:48.084Z,96.08
2019-03-23T03:33:48.069Z,97.03
2019-03-23T03:34:48.037Z,96.36
2019-03-23T03:35:48.024Z,96.08
2019-03-23T03:36:48.036Z,96.84
2019-03-23T03:37:58.782Z,96.93
2019-03-23T03:38:48.006Z,96.93
2019-03-23T03:39:47.974Z,96.84
2019-03-23T03:40:47.974Z,96.45
2019-03-23T03:41:47.950Z,96.74
2019-03-23T03:42:47.954Z,96.84
2019-03-23T03:43:47.934Z,96.69
2019-03-23T03:44:47.929Z,96.79
2019-03-23T03:45:47.900Z,96.98
2019-03-23T03:46:47.911Z,96.31
2019-03-23T03:47:47.896Z,96.31
2019-03-23T03:48:47.888Z,96.84
2019-03-23T03:49:47.865Z,96.79
2019-03-23T03:50:47.857Z,96.12
2019-03-23T03:51:47.833Z,96.69
2019-03-23T03:52:47.850Z,96.5
2019-03-23T03:53:47.823Z,96.31
2019-03-23T03:54:47.842Z,96.31
2019-03-23T03:55:47.792Z,96.31
2019-03-23T03:56:47.786Z,96.31
2019-03-23T03:57:47.756Z,96.31
2019-03-23T03:58:47.758Z,96.5
2019-03-23T03:59:47.737Z,96.5
2019-03-23T04:00:47.749Z,96.5
2019-03-23T04:01:47.709Z,96.5
2019-03-23T04:02:47.714Z,96.5
2019-03-23T04:03:47.678Z,96.5
2019-03-23T04:04:47.716Z,96.5
2019-03-23T04:05:47.659Z,96.69
2019-03-23T04:06:47.678Z,96.6
2019-03-23T04:07:47.663Z,96.6
2019-03-23T04:08:47.620Z,96.6
2019-03-23T04:09:47.607Z,96.6
2019-03-23T04:10:47.625Z,96.69
2019-03-23T04:11:47.609Z,96.74
2019-03-23T04:12:47.574Z,96.5
2019-03-23T04:13:47.574Z,96.79
2019-03-23T04:14:47.545Z,96.5
2019-03-23T04:15:47.560Z,96.5
2019-03-23T04:16:47.539Z,96.65
2019-03-23T04:17:47.530Z,96.6
2019-03-23T04:18:47.523Z,96.88
2019-03-23T04:19:47.497Z,96.79
2019-03-23T04:20:47.476Z,96.98
2019-03-23T04:21:47.487Z,96.69
2019-03-23T04:22:47.471Z,96.79
2019-03-23T04:23:47.455Z,96.84
2019-03-23T04:24:47.432Z,96.5
2019-03-23T04:25:47.410Z,96.88
2019-03-23T04:26:47.400Z,97.07
2019-03-23T04:27:47.415Z,96.69
2019-03-23T04:28:47.377Z,97.07
2019-03-23T04:29:47.385Z,96.6
2019-03-23T04:30:47.345Z,96.69
2019-03-23T04:31:47.358Z,96.79
2019-03-23T04:32:47.328Z,96.79
2019-03-23T04:33:47.333Z,96.88
2019-03-23T04:34:47.304Z,97.07
2019-03-23T04:35:47.308Z,96.98
2019-03-23T04:36:47.293Z,97.12
2019-03-23T04:37:47.313Z,96.69
2019-03-23T04:38:47.254Z,97.07
2019-03-23T04:39:47.273Z,96.98
2019-03-23T04:40:47.249Z,97.07
2019-03-23T04:41:47.228Z,97.07
2019-03-23T04:42:47.197Z,96.88
2019-03-23T04:43:47.204Z,96.88
2019-03-23T04:44:47.176Z,96.5
2019-03-23T04:45:47.186Z,96.5
2019-03-23T04:46:47.146Z,96.69
2019-03-23T04:47:47.152Z,96.88
2019-03-23T04:48:47.124Z,96.79
2019-03-23T04:49:47.126Z,96.98
2019-03-23T04:50:47.101Z,96.69
2019-03-23T04:51:47.118Z,97.03
2019-03-23T04:52:47.091Z,96.79
2019-03-23T04:53:47.078Z,96.69
2019-03-23T04:54:47.048Z,97.07
2019-03-23T04:55:47.100Z,97.27
2019-03-23T04:56:47.034Z,97.27
2019-03-23T04:57:47.012Z,97.27
2019-03-23T04:58:47.010Z,97.07
2019-03-23T04:59:47.006Z,96.98
2019-03-23T05:00:46.980Z,97.27
2019-03-23T05:01:46.982Z,97.07
2019-03-23T05:02:46.974Z,97.07
2019-03-23T05:03:46.956Z,97.17
2019-03-23T05:04:46.923Z,97.07
2019-03-23T05:05:46.951Z,97.17
2019-03-23T05:06:46.900Z,97.17
2019-03-23T05:07:46.909Z,97.17
2019-03-23T05:08:46.881Z,97.27
2019-03-23T05:09:46.863Z,97.55
2019-03-23T05:10:46.869Z,97.64
2019-03-23T05:11:46.855Z,97.64
2019-03-23T05:12:46.833Z,97.45
2019-03-23T05:13:46.814Z,97.55
2019-03-23T05:14:46.801Z,97.55
2019-03-23T05:15:46.807Z,97.83
2019-03-23T05:16:46.781Z,97.64
2019-03-23T05:17:46.534Z,97.83
2019-03-23T05:18:46.752Z,97.64
2019-03-23T05:19:46.758Z,97.64
2019-03-23T05:20:46.728Z,97.74
2019-03-23T05:21:46.731Z,97.74
2019-03-23T05:22:46.701Z,97.64
2019-03-23T05:23:48.301Z,97.64
2019-03-23T05:24:46.700Z,97.45
2019-03-23T05:25:46.682Z,97.55
2019-03-23T05:26:46.654Z,97.55
2019-03-23T05:27:46.640Z,97.45
2019-03-23T05:28:46.640Z,97.64
2019-03-23T05:29:46.639Z,97.45
2019-03-23T05:30:46.625Z,97.45
2019-03-23T05:31:46.590Z,97.64
2019-03-23T05:32:46.593Z,97.55
2019-03-23T05:33:46.583Z,97.74
2019-03-23T05:34:46.560Z,97.36
2019-03-23T05:35:46.562Z,97.64
2019-03-23T05:36:46.529Z,97.64
2019-03-23T05:37:46.534Z,97.64
2019-03-23T05:38:47.333Z,97.74
2019-03-23T05:39:46.514Z,97.64
2019-03-23T05:40:46.493Z,97.55
2019-03-23T05:41:46.507Z,97.64
2019-03-23T05:42:46.458Z,97.83
2019-03-23T05:43:46.445Z,97.64
2019-03-23T05:44:46.445Z,97.5
2019-03-23T05:45:46.441Z,97.41
2019-03-23T05:46:46.426Z,97.41
2019-03-23T05:47:46.396Z,97.41
2019-03-23T05:48:46.397Z,97.31
2019-03-23T05:49:46.128Z,97.78
2019-03-23T05:50:46.378Z,97.6
2019-03-23T05:51:46.348Z,97.69
2019-03-23T05:52:46.351Z,97.31
2019-03-23T05:53:46.324Z,97.69
2019-03-23T05:54:46.083Z,97.31
2019-03-23T05:55:46.298Z,97.31
2019-03-23T05:56:46.292Z,97.12
2019-03-23T05:57:46.276Z,97.41
2019-03-23T05:58:46.285Z,97.36
2019-03-23T05:59:46.009Z,97.17
2019-03-23T06:00:46.262Z,97.36
2019-03-23T06:01:46.269Z,96.98
2019-03-23T06:02:46.235Z,96.79
2019-03-23T06:03:46.208Z,97.08
2019-03-23T06:04:46.210Z,97.17
2019-03-23T06:05:46.189Z,97.03
2019-03-23T06:06:46.192Z,97.22
2019-03-23T06:07:46.163Z,96.94
2019-03-23T06:08:56.938Z,97.03
2019-03-23T06:09:46.143Z,97.08
2019-03-23T06:10:46.149Z,96.03
2019-03-23T06:11:46.123Z,96.51
2019-03-23T06:12:46.124Z,96.7
2019-03-23T06:13:46.101Z,96.75
2019-03-23T06:14:46.113Z,96.84
2019-03-23T06:15:46.104Z,96.55
2019-03-23T06:16:46.078Z,96.46
2019-03-23T06:17:46.063Z,96.41
2019-03-23T06:18:46.057Z,96.41
2019-03-23T06:19:46.064Z,96.27
2019-03-23T06:20:46.070Z,96.17
2019-03-23T06:21:46.047Z,97.08
2019-03-23T06:22:46.024Z,97.08
2019-03-23T06:23:46.032Z,96.13
2019-03-23T06:24:46.007Z,97.08
2019-03-23T06:25:45.998Z,96.56
2019-03-23T06:26:46.009Z,96.27
2019-03-23T06:27:45.981Z,96.61
2019-03-23T06:28:45.979Z,96.51
2019-03-23T06:29:45.967Z,96.61
2019-03-23T06:30:45.980Z,96.8
2019-03-23T06:31:45.973Z,96.27
2019-03-23T06:32:45.953Z,96.46
2019-03-23T06:33:45.942Z,96.27
2019-03-23T06:34:45.939Z,96.42
2019-03-23T06:35:45.953Z,96.32
2019-03-23T06:36:45.929Z,96.13
2019-03-23T06:37:45.937Z,95.98
2019-03-23T06:38:45.914Z,96.08
2019-03-23T06:39:45.926Z,95.98
2019-03-23T06:40:45.905Z,95.41
2019-03-23T06:41:45.916Z,96.18
2019-03-23T06:42:45.894Z,95.7
2019-03-23T06:43:45.908Z,95.65
2019-03-23T06:44:45.900Z,95.84
2019-03-23T06:45:45.908Z,95.07
2019-03-23T06:46:45.876Z,95.31
2019-03-23T06:47:45.872Z,94.36
2019-03-23T06:48:45.882Z,94.69
2019-03-23T06:49:45.937Z,93.74
2019-03-23T06:50:45.857Z,93.74
2019-03-23T06:51:45.877Z,93.16
2019-03-23T06:52:45.854Z,92.68
2019-03-23T06:53:45.870Z,92.78
2019-03-23T06:54:45.846Z,92.73
2019-03-23T06:55:45.859Z,93.02
2019-03-23T06:56:45.837Z,92.73
2019-03-23T06:57:45.851Z,92.49
2019-03-23T06:58:45.831Z,91.63
2019-03-23T06:59:45.849Z,91.91
2019-03-23T07:00:45.840Z,91.09
2019-03-23T07:01:45.841Z,90.33
2019-03-23T07:02:45.822Z,90.28
2019-03-23T07:03:45.818Z,88.93
2019-03-23T07:04:45.833Z,88.35
2019-03-23T07:05:45.834Z,88.21
2019-03-23T07:06:45.842Z,88.11
2019-03-23T07:07:45.812Z,87.49
2019-03-23T07:08:45.823Z,86.43
2019-03-23T07:09:45.808Z,86.18
2019-03-23T07:10:45.824Z,86.09
2019-03-23T07:11:45.806Z,85.03
2019-03-23T07:12:45.829Z,83.44
2019-03-23T07:13:45.803Z,82.48
2019-03-23T07:14:45.822Z,82.38
2019-03-23T07:15:45.802Z,81.75
2019-03-23T07:16:45.819Z,80.11
2019-03-23T07:17:45.823Z,79.82
2019-03-23T07:18:45.802Z,79.77
2019-03-23T07:19:45.801Z,79.1
2019-03-23T07:20:45.819Z,78.61
2019-03-23T07:21:45.825Z,78.17
2019-03-23T07:22:45.828Z,77.4
2019-03-23T07:23:45.816Z,77.11
2019-03-23T07:24:45.825Z,77.06
2019-03-23T07:25:45.809Z,75.23
2019-03-23T07:26:45.843Z,75.42
2019-03-23T07:27:45.813Z,74.26
2019-03-23T07:28:45.836Z,74.36
2019-03-23T07:29:45.832Z,74.16
2019-03-23T07:30:45.838Z,73.49
2019-03-23T07:31:45.821Z,72.85
2019-03-23T07:32:45.825Z,72.75
2019-03-23T07:33:45.863Z,72.08
2019-03-23T07:34:45.849Z,72.08
2019-03-23T07:35:45.855Z,71.89
2019-03-23T07:36:45.838Z,71.98
2019-03-23T07:37:45.860Z,71.79
2019-03-23T07:38:45.844Z,71.31
2019-03-23T07:39:45.871Z,70.15
2019-03-23T07:40:45.853Z,69.38
2019-03-23T07:41:45.872Z,70.64
2019-03-23T07:42:45.891Z,70.44
2019-03-23T07:43:45.870Z,70.19
2019-03-23T07:44:45.886Z,69.71
2019-03-23T07:45:45.885Z,68.35
2019-03-23T07:46:45.896Z,68.45
2019-03-23T07:47:45.896Z,68.07
2019-03-23T07:48:45.889Z,67.81
2019-03-23T07:49:45.905Z,68.01
2019-03-23T07:50:45.914Z,67.52
2019-03-23T07:51:45.912Z,67.14
2019-03-23T07:52:45.901Z,66.85
2019-03-23T07:53:45.918Z,66.36
2019-03-23T07:54:45.907Z,66.85
2019-03-23T07:55:45.929Z,67
2019-03-23T07:56:45.914Z,66.91
2019-03-23T07:57:45.943Z,67.4
2019-03-23T07:58:45.922Z,67.1
2019-03-23T07:59:45.954Z,66.91
2019-03-23T08:00:45.931Z,66.33
2019-03-23T08:01:45.937Z,66.43
2019-03-23T08:02:45.940Z,65.56
2019-03-23T08:03:45.963Z,66.2
2019-03-23T08:04:45.962Z,65.72
2019-03-23T08:05:45.952Z,66.3
2019-03-23T08:06:45.952Z,66.85
2019-03-23T08:07:45.971Z,67.13
2019-03-23T08:08:45.961Z,67.9
2019-03-23T08:09:45.974Z,68.38
2019-03-23T08:10:45.965Z,68.74
2019-03-23T08:11:45.983Z,69.02
2019-03-23T08:12:45.969Z,69.41
2019-03-23T08:13:45.994Z,69.79
2019-03-23T08:14:45.974Z,69.7
2019-03-23T08:15:45.993Z,70.34
2019-03-23T08:16:45.983Z,71.01
2019-03-23T08:17:45.985Z,71.2
2019-03-23T08:18:45.983Z,71.59
2019-03-23T08:19:45.998Z,71.17
2019-03-23T08:20:45.981Z,71.36
2019-03-23T08:21:45.996Z,71.84
2019-03-23T08:22:46.000Z,72.67
2019-03-23T08:23:46.000Z,72.96
2019-03-23T08:24:45.981Z,73.79
2019-03-23T08:25:45.999Z,73.88
2019-03-23T08:26:45.978Z,75.04
2019-03-23T08:27:45.998Z,75.57
2019-03-23T08:28:45.975Z,75.87
2019-03-23T08:29:45.992Z,76.64
2019-03-23T08:30:45.972Z,76.54
2019-03-23T08:31:45.990Z,76.92
2019-03-23T08:32:45.969Z,77.65
2019-03-23T08:33:45.984Z,78.13
2019-03-23T08:34:45.981Z,78.32
2019-03-23T08:35:45.964Z,78.52
2019-03-23T08:36:45.959Z,79.09
2019-03-23T08:37:45.968Z,79.57
2019-03-23T08:38:45.972Z,79.91
2019-03-23T08:39:50.884Z,79.82
2019-03-23T08:40:45.947Z,80.68
2019-03-23T08:41:45.960Z,81.35
2019-03-23T08:42:45.939Z,81.45
2019-03-23T08:43:45.954Z,82.12
2019-03-23T08:44:45.934Z,82.75
2019-03-23T08:45:45.948Z,82.75
2019-03-23T08:46:46.373Z,82.94
2019-03-23T08:47:45.938Z,82.85
2019-03-23T08:48:45.917Z,83.52
2019-03-23T08:49:45.918Z,84.28
2019-03-23T08:50:45.913Z,83.91
2019-03-23T08:51:45.922Z,83.71
2019-03-23T08:52:45.933Z,84.77
2019-03-23T08:53:45.936Z,84.48
2019-03-23T08:54:45.893Z,85.15
2019-03-23T08:55:45.888Z,84.77
2019-03-23T08:56:45.903Z,84.67
2019-03-23T08:57:45.887Z,85.05
2019-03-23T08:58:45.879Z,85.53
2019-03-23T08:59:45.893Z,85.21
2019-03-23T09:00:45.867Z,85.11
2019-03-23T09:01:45.881Z,85.97
2019-03-23T09:02:45.857Z,86.07
2019-03-23T09:03:54.851Z,85.97
2019-03-23T09:04:45.853Z,85.78
2019-03-23T09:05:45.848Z,85.97
2019-03-23T09:06:45.838Z,85.88
2019-03-23T09:07:45.866Z,85.78
2019-03-23T09:08:45.849Z,85.58
2019-03-23T09:09:45.829Z,86.25
2019-03-23T09:10:45.824Z,85.88
2019-03-23T09:11:45.821Z,86.35
2019-03-23T09:12:45.834Z,85.88
2019-03-23T09:13:45.816Z,86.45
2019-03-23T09:14:45.868Z,86.35
2019-03-23T09:15:45.796Z,85.97
2019-03-23T09:16:45.808Z,85.78
2019-03-23T09:17:45.792Z,86.07
2019-03-23T09:18:45.800Z,86.35
2019-03-23T09:19:45.808Z,86.25
2019-03-23T09:20:45.792Z,85.97
2019-03-23T09:21:45.782Z,86.07
2019-03-23T09:22:45.781Z,86.07
2019-03-23T09:23:45.760Z,86.25
2019-03-23T09:24:45.769Z,86.74
2019-03-23T09:25:48.151Z,86.45
2019-03-23T09:26:45.747Z,86.25
2019-03-23T09:27:45.740Z,85.88
2019-03-23T09:28:45.756Z,85.88
2019-03-23T09:29:45.732Z,86.45
2019-03-23T09:30:45.740Z,86.45
2019-03-23T09:31:45.716Z,86.45
2019-03-23T09:32:45.730Z,86.35
2019-03-23T09:33:45.708Z,85.78
2019-03-23T09:34:45.720Z,85.97
2019-03-23T09:35:45.700Z,85.97
2019-03-23T09:36:45.711Z,85.88
2019-03-23T09:37:45.705Z,85.88
2019-03-23T09:38:45.700Z,86.01
2019-03-23T09:39:45.680Z,85.97
2019-03-23T09:40:45.674Z,86.25
2019-03-23T09:41:45.682Z,86.11
2019-03-23T09:42:45.682Z,85.92
2019-03-23T09:43:45.676Z,85.44
2019-03-23T09:44:45.652Z,85.34
2019-03-23T09:45:45.662Z,84.58
2019-03-23T09:46:45.645Z,84.95
2019-03-23T09:47:45.661Z,84.86
2019-03-23T09:48:45.639Z,85.25
2019-03-23T09:49:45.641Z,84.58
2019-03-23T09:50:45.641Z,84.67
2019-03-23T09:51:45.617Z,84.58
2019-03-23T09:52:45.643Z,85.05
2019-03-23T09:53:45.623Z,84.67
2019-03-23T09:54:45.621Z,84.77
2019-03-23T09:55:45.598Z,84.58
2019-03-23T09:56:45.594Z,85.05
2019-03-23T09:57:45.609Z,85.05
2019-03-23T09:58:45.601Z,85.05
2019-03-23T09:59:45.598Z,85.15
2019-03-23T10:00:45.576Z,84.86
2019-03-23T10:01:45.582Z,84.52
2019-03-23T10:02:45.320Z,84.58
2019-03-23T10:03:45.578Z,84.28
2019-03-23T10:04:45.557Z,83.71
2019-03-23T10:05:45.568Z,83.52
2019-03-23T10:06:45.546Z,83.81
2019-03-23T10:07:45.561Z,83.81
2019-03-23T10:08:46.483Z,84.23
2019-03-23T10:09:45.534Z,84.04
2019-03-23T10:10:45.528Z,83.37
2019-03-23T10:11:45.542Z,83.65
2019-03-23T10:12:45.536Z,82.89
2019-03-23T10:13:45.516Z,82.31
2019-03-23T10:14:45.509Z,82.41
2019-03-23T10:15:45.563Z,82.79
2019-03-23T10:16:45.497Z,82.79
2019-03-23T10:17:45.507Z,82.7
2019-03-23T10:18:45.497Z,82.7
2019-03-23T10:19:45.502Z,82.89
2019-03-23T10:20:45.482Z,83.47
2019-03-23T10:21:45.492Z,83.27
2019-03-23T10:22:45.472Z,83.65
2019-03-23T10:23:45.485Z,83.27
2019-03-23T10:24:45.469Z,83.08
2019-03-23T10:25:45.460Z,83.18
2019-03-23T10:26:45.449Z,82.98
2019-03-23T10:27:45.467Z,82.89
2019-03-23T10:28:45.461Z,82.89
2019-03-23T10:29:45.442Z,83.08
2019-03-23T10:30:45.431Z,82.12
2019-03-23T10:31:45.426Z,82.07
2019-03-23T10:32:45.443Z,82.07
2019-03-23T10:33:45.440Z,82.16
2019-03-23T10:34:45.433Z,80.82
2019-03-23T10:35:45.418Z,79.96
2019-03-23T10:36:45.424Z,79.09
2019-03-23T10:37:45.401Z,78.99
2019-03-23T10:38:45.413Z,79.19
2019-03-23T10:39:45.391Z,79.19
2019-03-23T10:40:45.509Z,78.9
2019-03-23T10:41:45.386Z,78.42
2019-03-23T10:42:45.869Z,77.36
2019-03-23T10:43:45.391Z,77.08
2019-03-23T10:44:45.386Z,77.46
2019-03-23T10:45:46.883Z,77.46
2019-03-23T10:46:45.361Z,77.08
2019-03-23T10:47:45.619Z,76.98
2019-03-23T10:48:45.368Z,77.17
2019-03-23T10:49:45.353Z,77.17
2019-03-23T10:50:45.362Z,77.65
2019-03-23T10:51:45.335Z,77.84
2019-03-23T10:52:45.351Z,77.94
2019-03-23T10:53:45.330Z,78.42
2019-03-23T10:54:45.344Z,79.28
2019-03-23T10:55:45.321Z,79.38
2019-03-23T10:56:45.334Z,79.28
2019-03-23T10:57:45.325Z,79.57
2019-03-23T10:58:45.341Z,79.13
2019-03-23T10:59:45.301Z,79.47
2019-03-23T11:00:45.310Z,79.13
2019-03-23T11:01:45.306Z,78.08
2019-03-23T11:02:45.306Z,77.98
2019-03-23T11:03:45.313Z,79.03
2019-03-23T11:04:45.279Z,79.61
2019-03-23T11:05:45.296Z,78.45
2019-03-23T11:06:45.287Z,78.55
2019-03-23T11:07:45.267Z,78.27
2019-03-23T11:08:45.280Z,77.98
2019-03-23T11:09:45.258Z,78.08
2019-03-23T11:10:45.024Z,77.69
2019-03-23T11:11:45.252Z,77.4
2019-03-23T11:12:45.265Z,77.25
2019-03-23T11:13:45.256Z,77.25
2019-03-23T11:14:45.253Z,76.39
2019-03-23T11:15:45.234Z,76.67
2019-03-23T11:16:45.228Z,76.77
2019-03-23T11:17:45.242Z,76.67
2019-03-23T11:18:45.242Z,76.77
2019-03-23T11:19:45.244Z,76.96
2019-03-23T11:20:45.226Z,77.15
2019-03-23T11:21:45.220Z,77.15
2019-03-23T11:22:45.203Z,76.96
2019-03-23T11:23:45.601Z,77.15
2019-03-23T11:24:45.193Z,77.06
2019-03-23T11:25:45.207Z,77.83
2019-03-23T11:26:45.185Z,78.21
2019-03-23T11:27:45.202Z,78.69
2019-03-23T11:28:45.178Z,78.4
2019-03-23T11:29:45.177Z,78.11
2019-03-23T11:30:45.171Z,77.73
2019-03-23T11:31:45.182Z,78.11
2019-03-23T11:32:45.164Z,77.73
2019-03-23T11:33:45.170Z,77.15
2019-03-23T11:34:45.173Z,77.34
2019-03-23T11:35:45.174Z,77.83
2019-03-23T11:36:45.144Z,78.3
2019-03-23T11:37:45.715Z,76.61
2019-03-23T11:38:45.140Z,76.42
2019-03-23T11:39:45.150Z,75.46
2019-03-23T11:40:56.180Z,73.15
2019-03-23T11:41:45.146Z,73.54
2019-03-23T11:42:52.505Z,72.96
2019-03-23T11:43:45.135Z,73.63
2019-03-23T11:44:45.190Z,74.02
2019-03-23T11:45:45.134Z,73.83
2019-03-23T11:46:44.883Z,73.35
2019-03-23T11:47:45.107Z,73.35
2019-03-23T11:48:45.096Z,73.15
2019-03-23T11:49:45.106Z,72.48
2019-03-23T11:50:45.110Z,72.09
2019-03-23T11:51:45.106Z,72.29
2019-03-23T11:52:46.980Z,72.19
2019-03-23T11:53:45.092Z,72.29
2019-03-23T11:54:45.075Z,73.15
2019-03-23T11:55:45.090Z,72
2019-03-23T11:56:45.081Z,71.91
2019-03-23T11:57:45.077Z,71.91
2019-03-23T11:58:45.077Z,71.04
2019-03-23T11:59:45.055Z,71.04
2019-03-23T12:00:45.070Z,71.23
2019-03-23T12:01:54.098Z,71.14
2019-03-23T12:02:45.064Z,71.23
2019-03-23T12:03:45.044Z,71.14
2019-03-23T12:04:45.035Z,71.71
2019-03-23T12:05:45.046Z,71.81
2019-03-23T12:06:45.047Z,72.16
2019-03-23T12:07:45.049Z,73.11
2019-03-23T12:08:45.018Z,73.11
2019-03-23T12:09:45.028Z,73.44
2019-03-23T12:10:45.046Z,72.96
2019-03-23T12:11:45.025Z,73.44
2019-03-23T12:12:45.004Z,73.83
2019-03-23T12:13:45.048Z,73.92
2019-03-23T12:14:44.994Z,74.11
2019-03-23T12:15:45.009Z,74.27
2019-03-23T12:16:44.987Z,74.98
2019-03-23T12:17:44.996Z,74.6
2019-03-23T12:18:44.982Z,75.46
2019-03-23T12:19:44.993Z,75.37
2019-03-23T12:20:44.993Z,74.88
2019-03-23T12:21:44.971Z,75.37
2019-03-23T12:22:44.963Z,75.46
2019-03-23T12:23:44.977Z,75.84
2019-03-23T12:24:44.957Z,76.04
2019-03-23T12:25:44.965Z,75.75
2019-03-23T12:26:44.949Z,75.75
2019-03-23T12:27:44.961Z,75.94
2019-03-23T12:28:44.939Z,74.98
2019-03-23T12:29:44.954Z,74.98
2019-03-23T12:30:44.936Z,75.27
2019-03-23T12:31:44.947Z,74.69
2019-03-23T12:32:44.925Z,73.98
2019-03-23T12:33:44.926Z,74.11
2019-03-23T12:34:44.915Z,74.27
2019-03-23T12:35:44.931Z,74.94
2019-03-23T12:36:44.930Z,75.32
2019-03-23T12:37:44.921Z,76
2019-03-23T12:38:44.899Z,75.71
2019-03-23T12:39:44.897Z,76.04
2019-03-23T12:40:44.911Z,75.9
2019-03-23T12:41:44.914Z,76.39
2019-03-23T12:42:44.906Z,76.29
2019-03-23T12:43:44.880Z,76.39
2019-03-23T12:44:44.898Z,76.48
2019-03-23T12:45:44.873Z,77.25
2019-03-23T12:46:50.873Z,77.67
2019-03-23T12:47:44.864Z,77.67
2019-03-23T12:48:44.880Z,77.86
2019-03-23T12:49:44.865Z,78.06
2019-03-23T12:50:44.855Z,77.09
2019-03-23T12:51:44.867Z,76.04
2019-03-23T12:52:44.863Z,75.07
2019-03-23T12:53:44.845Z,75.94
2019-03-23T12:54:44.837Z,76.04